createdAt,value
2017-08-28T00:00:37.789Z,23.3
2017-08-28T00:01:45.881Z,23.3
2017-08-28T00:02:54.007Z,23.3
2017-08-28T00:04:02.053Z,23.3
2017-08-28T00:05:10.143Z,23.3
2017-08-28T00:06:18.231Z,23.2
2017-08-28T00:07:26.321Z,23.3
2017-08-28T00:08:34.415Z,23.3
2017-08-28T00:09:42.502Z,23.3
2017-08-28T00:10:50.592Z,23.1
2017-08-28T00:11:58.692Z,23.2
2017-08-28T00:13:06.786Z,23.3
2017-08-28T00:14:14.874Z,23.2
2017-08-28T00:15:22.964Z,23.2
2017-08-28T00:16:31.052Z,23.3
2017-08-28T00:17:39.141Z,23.3
2017-08-28T00:18:47.247Z,23.2
2017-08-28T00:19:55.319Z,23.2
2017-08-28T00:21:03.407Z,23.2
2017-08-28T00:22:11.490Z,23.2
2017-08-28T00:23:19.579Z,23.2
2017-08-28T00:24:27.671Z,23.2
2017-08-28T00:25:35.757Z,23.2
2017-08-28T00:26:43.854Z,23.2
2017-08-28T00:27:51.934Z,23.2
2017-08-28T00:29:00.067Z,23.2
2017-08-28T00:30:08.111Z,23.2
2017-08-28T00:31:16.220Z,23.2
2017-08-28T00:32:24.286Z,23.2
2017-08-28T00:33:32.377Z,23.2
2017-08-28T00:34:40.465Z,23.2
2017-08-28T00:35:48.550Z,23.2
2017-08-28T00:36:56.641Z,23.1
2017-08-28T00:38:04.727Z,23.1
2017-08-28T00:39:12.815Z,23.1
2017-08-28T00:40:20.905Z,23.1
2017-08-28T00:41:28.990Z,23.1
2017-08-28T00:42:37.077Z,23.2
2017-08-28T00:43:45.176Z,23.2
2017-08-28T00:44:53.256Z,23.1
2017-08-28T00:46:01.345Z,23.2
2017-08-28T00:47:09.430Z,23.2
2017-08-28T00:48:17.521Z,23.1
2017-08-28T00:49:25.608Z,23.2
2017-08-28T00:50:33.708Z,23.2
2017-08-28T00:51:41.792Z,23.2
2017-08-28T00:52:49.889Z,23.2
2017-08-28T00:53:57.977Z,23.2
2017-08-28T00:55:06.072Z,23.2
2017-08-28T00:56:14.168Z,23.2
2017-08-28T00:57:22.251Z,23.2
2017-08-28T00:58:30.340Z,23.2
2017-08-28T00:59:38.435Z,23.2
2017-08-28T01:00:46.523Z,23.1
2017-08-28T01:01:54.625Z,23.2
2017-08-28T01:03:02.699Z,23.2
2017-08-28T01:04:10.792Z,23.2
2017-08-28T01:05:18.881Z,23.1
2017-08-28T01:06:26.969Z,23.2
2017-08-28T01:07:35.062Z,23.1
2017-08-28T01:08:43.146Z,23.1
2017-08-28T01:09:51.230Z,23.1
2017-08-28T01:10:59.320Z,23.1
2017-08-28T01:12:07.409Z,23.1
2017-08-28T01:13:15.506Z,23.1
2017-08-28T01:14:23.595Z,23.1
2017-08-28T01:15:31.683Z,23.1
2017-08-28T01:16:39.771Z,23.1
2017-08-28T01:17:47.857Z,23.1
2017-08-28T01:18:55.945Z,23.1
2017-08-28T01:20:04.033Z,23.1
2017-08-28T01:21:12.127Z,23.1
2017-08-28T01:22:20.207Z,23.1
2017-08-28T01:23:28.295Z,23.1
2017-08-28T01:24:36.386Z,23.1
2017-08-28T01:25:44.479Z,23.1
2017-08-28T01:26:52.560Z,23.1
2017-08-28T01:28:00.648Z,23.1
2017-08-28T01:29:08.735Z,23.1
2017-08-28T01:30:16.824Z,23.1
2017-08-28T01:31:24.920Z,23.1
2017-08-28T01:32:33.000Z,23.1
2017-08-28T01:33:41.088Z,23.1
2017-08-28T01:34:49.181Z,23.1
2017-08-28T01:35:57.269Z,23.1
2017-08-28T01:37:05.373Z,23.1
2017-08-28T01:38:13.449Z,23.1
2017-08-28T01:39:21.536Z,23.1
2017-08-28T01:40:29.625Z,23.0
2017-08-28T01:41:37.727Z,23.0
2017-08-28T01:42:45.816Z,23.1
2017-08-28T01:43:53.904Z,22.9
2017-08-28T01:45:01.992Z,22.9
2017-08-28T01:46:10.084Z,23.1
2017-08-28T01:47:18.169Z,23.0
2017-08-28T01:48:26.256Z,22.9
2017-08-28T01:49:34.345Z,23.0
2017-08-28T01:50:42.439Z,23.0
2017-08-28T01:51:50.524Z,22.9
2017-08-28T01:52:58.605Z,23.0
2017-08-28T01:54:06.695Z,23.0
2017-08-28T01:55:14.784Z,23.0
2017-08-28T01:56:22.869Z,23.0
2017-08-28T01:57:30.960Z,23.0
2017-08-28T01:58:39.049Z,23.0
2017-08-28T01:59:47.133Z,22.9
2017-08-28T02:00:55.233Z,22.9
2017-08-28T02:02:03.317Z,23.1
2017-08-28T02:03:11.408Z,22.9
2017-08-28T02:04:19.506Z,22.9
2017-08-28T02:05:27.600Z,23.0
2017-08-28T02:06:35.685Z,22.9
2017-08-28T02:07:43.774Z,23.0
2017-08-28T02:08:51.869Z,23.0
2017-08-28T02:09:59.950Z,22.9
2017-08-28T02:11:08.039Z,22.9
2017-08-28T02:12:16.131Z,22.9
2017-08-28T02:13:24.221Z,22.9
2017-08-28T02:14:32.306Z,22.9
2017-08-28T02:15:40.393Z,23.0
2017-08-28T02:16:48.491Z,22.9
2017-08-28T02:17:56.580Z,22.9
2017-08-28T02:19:04.667Z,22.9
2017-08-28T02:20:12.869Z,22.9
2017-08-28T02:21:20.964Z,22.9
2017-08-28T02:22:29.055Z,23.0
2017-08-28T02:23:37.140Z,22.9
2017-08-28T02:24:45.228Z,23.0
2017-08-28T02:25:53.316Z,23.0
2017-08-28T02:27:01.416Z,22.9
2017-08-28T02:28:09.495Z,22.8
2017-08-28T02:29:17.583Z,23.0
2017-08-28T02:30:25.669Z,23.0
2017-08-28T02:31:33.763Z,22.9
2017-08-28T02:32:41.850Z,22.9
2017-08-28T02:33:49.935Z,22.8
2017-08-28T02:34:58.020Z,22.9
2017-08-28T02:36:06.114Z,22.8
2017-08-28T02:37:14.206Z,22.8
2017-08-28T02:38:22.285Z,22.9
2017-08-28T02:39:30.372Z,22.9
2017-08-28T02:40:38.462Z,22.9
2017-08-28T02:41:46.549Z,22.8
2017-08-28T02:42:54.638Z,22.8
2017-08-28T02:44:02.725Z,22.9
2017-08-28T02:45:10.810Z,22.9
2017-08-28T02:46:18.897Z,22.8
2017-08-28T02:47:26.986Z,22.9
2017-08-28T02:48:35.073Z,22.8
2017-08-28T02:49:43.161Z,22.8
2017-08-28T02:50:51.250Z,22.8
2017-08-28T02:51:59.395Z,22.9
2017-08-28T02:53:07.425Z,22.9
2017-08-28T02:54:15.513Z,22.9
2017-08-28T02:55:23.600Z,22.8
2017-08-28T02:56:31.686Z,22.8
2017-08-28T02:57:39.776Z,22.8
2017-08-28T02:58:47.864Z,22.8
2017-08-28T02:59:55.969Z,22.8
2017-08-28T03:01:04.059Z,22.8
2017-08-28T03:02:12.145Z,22.8
2017-08-28T03:03:20.234Z,22.8
2017-08-28T03:04:28.322Z,22.8
2017-08-28T03:05:36.409Z,22.8
2017-08-28T03:06:44.499Z,22.8
2017-08-28T03:07:52.587Z,22.8
2017-08-28T03:09:00.672Z,22.8
2017-08-28T03:10:08.760Z,22.8
2017-08-28T03:11:16.847Z,22.8
2017-08-28T03:12:24.936Z,22.8
2017-08-28T03:13:33.021Z,22.8
2017-08-28T03:14:41.120Z,22.8
2017-08-28T03:15:49.199Z,22.8
2017-08-28T03:16:57.288Z,22.8
2017-08-28T03:18:05.374Z,22.8
2017-08-28T03:19:13.462Z,22.8
2017-08-28T03:20:21.552Z,22.8
2017-08-28T03:21:29.636Z,22.7
2017-08-28T03:22:37.725Z,22.8
2017-08-28T03:23:45.812Z,22.8
2017-08-28T03:24:53.901Z,22.8
2017-08-28T03:26:01.990Z,22.8
2017-08-28T03:27:10.078Z,22.7
2017-08-28T03:28:18.166Z,22.8
2017-08-28T03:29:26.261Z,22.8
2017-08-28T03:30:34.341Z,22.8
2017-08-28T03:31:42.426Z,22.8
2017-08-28T03:32:50.513Z,22.8
2017-08-28T03:33:58.606Z,22.8
2017-08-28T03:35:06.693Z,22.8
2017-08-28T03:36:14.784Z,22.7
2017-08-28T03:37:22.868Z,22.7
2017-08-28T03:38:30.957Z,22.8
2017-08-28T03:39:39.042Z,22.7
2017-08-28T03:40:47.132Z,22.8
2017-08-28T03:41:55.220Z,22.7
2017-08-28T03:43:03.306Z,22.8
2017-08-28T03:44:11.395Z,22.8
2017-08-28T03:45:19.484Z,22.8
2017-08-28T03:46:27.570Z,22.8
2017-08-28T03:47:35.666Z,22.7
2017-08-28T03:48:43.749Z,22.8
2017-08-28T03:49:51.844Z,22.6
2017-08-28T03:50:59.929Z,22.8
2017-08-28T03:52:08.070Z,22.7
2017-08-28T03:53:16.157Z,22.6
2017-08-28T03:54:24.244Z,22.6
2017-08-28T03:55:32.427Z,22.7
2017-08-28T03:56:40.418Z,22.6
2017-08-28T03:57:48.506Z,22.7
2017-08-28T03:58:56.872Z,22.6
2017-08-28T04:00:04.686Z,22.6
2017-08-28T04:01:12.783Z,22.6
2017-08-28T04:02:20.870Z,22.6
2017-08-28T04:03:28.958Z,22.8
2017-08-28T04:04:37.074Z,22.6
2017-08-28T04:05:45.301Z,22.6
2017-08-28T04:06:53.220Z,22.6
2017-08-28T04:08:01.307Z,22.7
2017-08-28T04:09:09.397Z,22.7
2017-08-28T04:10:17.491Z,22.6
2017-08-28T04:11:25.571Z,22.6
2017-08-28T04:12:33.732Z,22.6
2017-08-28T04:13:41.743Z,22.6
2017-08-28T04:14:49.834Z,22.6
2017-08-28T04:15:57.923Z,22.6
2017-08-28T04:17:06.032Z,22.6
2017-08-28T04:18:14.837Z,22.6
2017-08-28T04:19:22.186Z,22.6
2017-08-28T04:20:30.270Z,22.6
2017-08-28T04:21:38.360Z,22.6
2017-08-28T04:22:46.447Z,22.6
2017-08-28T04:23:54.545Z,22.6
2017-08-28T04:25:02.630Z,22.6
2017-08-28T04:26:10.740Z,22.6
2017-08-28T04:27:18.810Z,22.5
2017-08-28T04:28:26.897Z,22.6
2017-08-28T04:29:35.757Z,22.6
2017-08-28T04:30:43.545Z,22.5
2017-08-28T04:31:51.167Z,22.6
2017-08-28T04:32:59.256Z,22.5
2017-08-28T04:34:07.343Z,22.6
2017-08-28T04:35:15.525Z,22.6
2017-08-28T04:36:23.533Z,22.6
2017-08-28T04:37:31.606Z,22.6
2017-08-28T04:38:39.702Z,22.6
2017-08-28T04:39:47.789Z,22.5
2017-08-28T04:40:55.878Z,22.6
2017-08-28T04:42:04.010Z,22.6
2017-08-28T04:43:12.103Z,22.6
2017-08-28T04:44:20.182Z,22.6
2017-08-28T04:45:28.293Z,22.6
2017-08-28T04:46:36.356Z,22.5
2017-08-28T04:47:44.444Z,22.6
2017-08-28T04:48:52.533Z,22.6
2017-08-28T04:50:00.739Z,22.6
2017-08-28T04:51:08.715Z,22.6
2017-08-28T04:52:16.796Z,22.6
2017-08-28T04:53:25.153Z,22.5
2017-08-28T04:54:32.977Z,22.6
2017-08-28T04:55:41.059Z,22.5
2017-08-28T04:56:49.158Z,22.5
2017-08-28T04:57:57.234Z,22.5
2017-08-28T04:59:05.322Z,22.5
2017-08-28T05:00:13.410Z,22.5
2017-08-28T05:01:21.497Z,22.5
2017-08-28T05:02:29.925Z,22.5
2017-08-28T05:03:37.674Z,22.5
2017-08-28T05:04:45.760Z,22.5
2017-08-28T05:05:53.848Z,22.4
2017-08-28T05:07:01.936Z,22.5
2017-08-28T05:08:10.022Z,22.6
2017-08-28T05:09:18.109Z,22.5
2017-08-28T05:10:26.196Z,22.5
2017-08-28T05:11:34.287Z,22.5
2017-08-28T05:12:42.374Z,22.5
2017-08-28T05:13:50.461Z,22.5
2017-08-28T05:14:58.554Z,22.6
2017-08-28T05:16:06.634Z,22.6
2017-08-28T05:17:14.720Z,22.5
2017-08-28T05:18:22.820Z,22.5
2017-08-28T05:19:30.905Z,22.5
2017-08-28T05:20:39.074Z,22.5
2017-08-28T05:21:47.089Z,22.5
2017-08-28T05:22:55.168Z,22.4
2017-08-28T05:24:03.255Z,22.5
2017-08-28T05:25:11.346Z,22.6
2017-08-28T05:26:19.432Z,22.5
2017-08-28T05:27:27.523Z,22.5
2017-08-28T05:28:35.619Z,22.5
2017-08-28T05:29:43.695Z,22.5
2017-08-28T05:30:51.783Z,22.6
2017-08-28T05:31:59.886Z,22.5
2017-08-28T05:33:07.977Z,22.5
2017-08-28T05:34:16.079Z,22.6
2017-08-28T05:35:24.151Z,22.5
2017-08-28T05:36:32.239Z,22.4
2017-08-28T05:37:40.435Z,22.4
2017-08-28T05:38:48.524Z,22.5
2017-08-28T05:39:56.641Z,22.4
2017-08-28T05:41:04.724Z,22.4
2017-08-28T05:42:12.784Z,22.4
2017-08-28T05:43:20.892Z,22.4
2017-08-28T05:44:28.960Z,22.5
2017-08-28T05:45:37.047Z,22.4
2017-08-28T05:46:45.134Z,22.4
2017-08-28T05:47:53.222Z,22.4
2017-08-28T05:49:01.309Z,22.4
2017-08-28T05:50:09.397Z,22.3
2017-08-28T05:51:17.484Z,22.4
2017-08-28T05:52:25.591Z,22.3
2017-08-28T05:53:33.685Z,22.4
2017-08-28T05:54:41.787Z,22.3
2017-08-28T05:55:49.854Z,22.4
2017-08-28T05:56:57.945Z,22.5
2017-08-28T05:58:06.050Z,22.4
2017-08-28T05:59:14.116Z,22.4
2017-08-28T06:00:22.202Z,22.4
2017-08-28T06:01:30.299Z,22.4
2017-08-28T06:02:38.381Z,22.3
2017-08-28T06:03:46.475Z,22.4
2017-08-28T06:04:54.563Z,22.4
2017-08-28T06:06:02.650Z,22.4
2017-08-28T06:07:10.900Z,22.4
2017-08-28T06:08:18.989Z,22.4
2017-08-28T06:09:27.078Z,22.4
2017-08-28T06:10:35.163Z,22.4
2017-08-28T06:11:43.276Z,22.4
2017-08-28T06:12:51.362Z,22.3
2017-08-28T06:13:59.450Z,22.4
2017-08-28T06:15:07.538Z,22.4
2017-08-28T06:16:15.625Z,22.4
2017-08-28T06:17:23.711Z,22.4
2017-08-28T06:18:31.801Z,22.3
2017-08-28T06:19:39.890Z,22.4
2017-08-28T06:20:47.976Z,22.3
2017-08-28T06:21:56.100Z,22.3
2017-08-28T06:23:04.153Z,22.3
2017-08-28T06:24:12.237Z,22.3
2017-08-28T06:25:20.323Z,22.3
2017-08-28T06:26:28.413Z,22.3
2017-08-28T06:27:36.502Z,22.3
2017-08-28T06:28:44.594Z,22.3
2017-08-28T06:29:52.678Z,22.3
2017-08-28T06:31:00.766Z,22.4
2017-08-28T06:32:08.854Z,22.2
2017-08-28T06:33:16.941Z,22.3
2017-08-28T06:34:25.028Z,22.3
2017-08-28T06:35:33.122Z,22.3
2017-08-28T06:36:41.203Z,22.3
2017-08-28T06:37:49.291Z,22.3
2017-08-28T06:38:57.379Z,22.3
2017-08-28T06:40:05.475Z,22.3
2017-08-28T06:41:13.564Z,22.2
2017-08-28T06:42:21.651Z,22.2
2017-08-28T06:43:29.743Z,22.3
2017-08-28T06:44:37.828Z,22.2
2017-08-28T06:45:45.913Z,22.3
2017-08-28T06:46:54.002Z,22.2
2017-08-28T06:48:02.092Z,22.3
2017-08-28T06:49:10.178Z,22.3
2017-08-28T06:50:18.289Z,22.3
2017-08-28T06:51:26.364Z,22.3
2017-08-28T06:52:34.462Z,22.3
2017-08-28T06:53:42.546Z,22.2
2017-08-28T06:54:50.644Z,22.4
2017-08-28T06:55:58.733Z,22.2
2017-08-28T06:57:06.817Z,22.3
2017-08-28T06:58:14.905Z,22.3
2017-08-28T06:59:22.994Z,22.3
2017-08-28T07:00:31.081Z,22.3
2017-08-28T07:01:39.176Z,22.3
2017-08-28T07:02:47.286Z,22.2
2017-08-28T07:03:55.362Z,22.3
2017-08-28T07:05:03.460Z,22.3
2017-08-28T07:06:11.550Z,22.3
2017-08-28T07:07:19.625Z,22.3
2017-08-28T07:08:27.710Z,22.3
2017-08-28T07:09:35.798Z,22.3
2017-08-28T07:10:43.887Z,22.3
2017-08-28T07:11:51.973Z,22.3
2017-08-28T07:13:00.060Z,22.3
2017-08-28T07:14:08.150Z,22.3
2017-08-28T07:15:16.237Z,22.3
2017-08-28T07:16:24.332Z,22.3
2017-08-28T07:17:32.413Z,22.2
2017-08-28T07:18:40.519Z,22.2
2017-08-28T07:19:48.585Z,22.3
2017-08-28T07:20:56.674Z,22.3
2017-08-28T07:22:04.780Z,22.2
2017-08-28T07:23:12.871Z,22.3
2017-08-28T07:24:20.953Z,22.2
2017-08-28T07:25:29.135Z,22.3
2017-08-28T07:26:37.129Z,22.3
2017-08-28T07:27:45.220Z,22.2
2017-08-28T07:28:53.308Z,22.3
2017-08-28T07:30:01.391Z,22.2
2017-08-28T07:31:09.496Z,22.3
2017-08-28T07:32:17.583Z,22.3
2017-08-28T07:33:25.745Z,22.2
2017-08-28T07:34:33.772Z,22.3
2017-08-28T07:35:41.847Z,22.3
2017-08-28T07:36:49.950Z,22.3
2017-08-28T07:37:58.020Z,22.2
2017-08-28T07:39:06.120Z,22.3
2017-08-28T07:40:14.200Z,22.4
2017-08-28T07:41:22.290Z,22.3
2017-08-28T07:42:30.380Z,22.2
2017-08-28T07:43:38.467Z,22.3
2017-08-28T07:44:46.554Z,22.3
2017-08-28T07:45:54.644Z,22.3
2017-08-28T07:47:02.730Z,22.3
2017-08-28T07:48:10.817Z,22.3
2017-08-28T07:49:18.905Z,22.3
2017-08-28T07:50:26.992Z,22.3
2017-08-28T07:51:35.080Z,22.4
2017-08-28T07:52:43.173Z,22.3
2017-08-28T07:53:51.264Z,22.3
2017-08-28T07:54:59.346Z,22.3
2017-08-28T07:56:07.432Z,22.4
2017-08-28T07:57:15.516Z,22.4
2017-08-28T07:58:23.604Z,22.3
2017-08-28T07:59:31.690Z,22.4
2017-08-28T08:00:39.780Z,22.4
2017-08-28T08:01:47.868Z,22.4
2017-08-28T08:02:55.954Z,22.4
2017-08-28T08:04:04.044Z,22.4
2017-08-28T08:05:12.131Z,22.4
2017-08-28T08:06:20.219Z,22.3
2017-08-28T08:07:28.309Z,22.4
2017-08-28T08:08:36.394Z,22.4
2017-08-28T08:09:44.486Z,22.5
2017-08-28T08:10:52.569Z,22.4
2017-08-28T08:12:00.659Z,22.4
2017-08-28T08:13:08.745Z,22.5
2017-08-28T08:14:16.834Z,22.4
2017-08-28T08:15:24.937Z,22.5
2017-08-28T08:16:33.031Z,22.5
2017-08-28T08:17:41.116Z,22.5
2017-08-28T08:18:49.203Z,22.5
2017-08-28T08:19:57.303Z,22.5
2017-08-28T08:21:05.393Z,22.5
2017-08-28T08:22:13.530Z,22.5
2017-08-28T08:23:21.552Z,22.5
2017-08-28T08:24:29.639Z,22.6
2017-08-28T08:25:37.726Z,22.5
2017-08-28T08:26:45.816Z,22.6
2017-08-28T08:27:53.904Z,22.6
2017-08-28T08:29:02.013Z,22.6
2017-08-28T08:30:10.101Z,22.6
2017-08-28T08:31:18.214Z,22.6
2017-08-28T08:32:26.281Z,22.6
2017-08-28T08:33:34.367Z,22.6
2017-08-28T08:34:42.457Z,22.6
2017-08-28T08:35:50.544Z,22.6
2017-08-28T08:36:58.633Z,22.6
2017-08-28T08:38:06.726Z,22.6
2017-08-28T08:39:14.814Z,22.6
2017-08-28T08:40:22.896Z,22.6
2017-08-28T08:41:30.985Z,22.6
2017-08-28T08:42:39.072Z,22.6
2017-08-28T08:43:47.162Z,22.7
2017-08-28T08:44:55.251Z,22.7
2017-08-28T08:46:03.338Z,22.7
2017-08-28T08:47:11.424Z,22.6
2017-08-28T08:48:19.514Z,22.6
2017-08-28T08:49:27.602Z,22.7
2017-08-28T08:50:35.692Z,22.6
2017-08-28T08:51:43.777Z,22.6
2017-08-28T08:52:51.922Z,22.7
2017-08-28T08:53:59.954Z,22.7
2017-08-28T08:55:08.052Z,22.7
2017-08-28T08:56:16.133Z,22.7
2017-08-28T08:57:24.218Z,22.7
2017-08-28T08:58:32.311Z,22.8
2017-08-28T08:59:40.395Z,22.8
2017-08-28T09:00:48.484Z,22.7
2017-08-28T09:01:56.573Z,22.8
2017-08-28T09:03:04.664Z,22.9
2017-08-28T09:04:12.753Z,22.8
2017-08-28T09:05:20.841Z,22.7
2017-08-28T09:06:28.928Z,22.8
2017-08-28T09:07:37.014Z,22.8
2017-08-28T09:08:45.105Z,22.8
2017-08-28T09:09:53.189Z,22.8
2017-08-28T09:11:01.286Z,22.8
2017-08-28T09:12:09.369Z,22.8
2017-08-28T09:13:17.458Z,22.9
2017-08-28T09:14:25.548Z,22.8
2017-08-28T09:15:33.636Z,22.9
2017-08-28T09:16:41.724Z,22.9
2017-08-28T09:17:49.810Z,22.9
2017-08-28T09:18:57.902Z,22.9
2017-08-28T09:20:06.007Z,22.8
2017-08-28T09:21:14.079Z,22.9
2017-08-28T09:22:22.167Z,22.9
2017-08-28T09:23:30.266Z,22.9
2017-08-28T09:24:38.354Z,22.9
2017-08-28T09:25:46.439Z,22.9
2017-08-28T09:26:54.529Z,23.0
2017-08-28T09:28:02.616Z,22.9
2017-08-28T09:29:10.707Z,23.0
2017-08-28T09:30:18.795Z,22.9
2017-08-28T09:31:26.884Z,23.0
2017-08-28T09:32:34.990Z,22.9
2017-08-28T09:33:43.062Z,22.9
2017-08-28T09:34:51.154Z,23.0
2017-08-28T09:35:59.239Z,23.0
2017-08-28T09:37:07.325Z,23.0
2017-08-28T09:38:15.413Z,23.0
2017-08-28T09:39:23.506Z,23.0
2017-08-28T09:40:31.593Z,23.1
2017-08-28T09:41:39.682Z,23.1
2017-08-28T09:42:47.777Z,23.1
2017-08-28T09:43:55.861Z,23.1
2017-08-28T09:45:03.945Z,23.1
2017-08-28T09:46:12.036Z,23.1
2017-08-28T09:47:20.124Z,23.1
2017-08-28T09:48:28.212Z,23.1
2017-08-28T09:49:36.302Z,23.1
2017-08-28T09:50:44.390Z,23.1
2017-08-28T09:51:52.478Z,23.1
2017-08-28T09:53:00.567Z,23.2
2017-08-28T09:54:08.664Z,23.2
2017-08-28T09:55:16.872Z,23.2
2017-08-28T09:56:24.960Z,23.1
2017-08-28T09:57:33.046Z,23.2
2017-08-28T09:58:41.134Z,23.2
2017-08-28T09:59:49.223Z,23.1
2017-08-28T10:00:57.313Z,23.1
2017-08-28T10:02:05.406Z,23.2
2017-08-28T10:03:13.494Z,23.2
2017-08-28T10:04:21.579Z,23.3
2017-08-28T10:05:29.668Z,23.3
2017-08-28T10:06:37.758Z,23.3
2017-08-28T10:07:45.846Z,23.3
2017-08-28T10:08:53.936Z,23.3
2017-08-28T10:10:02.025Z,23.3
2017-08-28T10:11:10.112Z,23.3
2017-08-28T10:12:18.200Z,23.3
2017-08-28T10:13:26.290Z,23.3
2017-08-28T10:14:34.383Z,23.3
2017-08-28T10:15:42.472Z,23.3
2017-08-28T10:16:50.558Z,23.3
2017-08-28T10:17:58.645Z,23.3
2017-08-28T10:19:06.740Z,23.3
2017-08-28T10:20:14.828Z,23.3
2017-08-28T10:21:22.917Z,23.4
2017-08-28T10:22:31.007Z,23.4
2017-08-28T10:23:39.095Z,23.4
2017-08-28T10:24:47.194Z,23.4
2017-08-28T10:25:55.284Z,23.4
2017-08-28T10:27:03.371Z,23.4
2017-08-28T10:28:11.461Z,23.4
2017-08-28T10:29:19.564Z,23.4
2017-08-28T10:30:27.640Z,23.4
2017-08-28T10:31:35.728Z,23.4
2017-08-28T10:32:43.817Z,23.4
2017-08-28T10:33:51.906Z,23.4
2017-08-28T10:34:59.992Z,23.5
2017-08-28T10:36:08.083Z,23.5
2017-08-28T10:37:16.178Z,23.4
2017-08-28T10:38:24.262Z,23.5
2017-08-28T10:39:32.351Z,23.5
2017-08-28T10:40:40.446Z,23.6
2017-08-28T10:41:48.531Z,23.6
2017-08-28T10:42:56.623Z,23.5
2017-08-28T10:44:04.709Z,23.6
2017-08-28T10:45:12.796Z,23.5
2017-08-28T10:46:20.885Z,23.5
2017-08-28T10:47:28.974Z,23.6
2017-08-28T10:48:37.070Z,23.5
2017-08-28T10:49:45.151Z,23.5
2017-08-28T10:50:53.242Z,23.5
2017-08-28T10:52:01.331Z,23.5
2017-08-28T10:53:09.425Z,23.6
2017-08-28T10:54:17.507Z,23.6
2017-08-28T10:55:25.603Z,23.7
2017-08-28T10:56:33.684Z,23.6
2017-08-28T10:57:41.773Z,23.6
2017-08-28T10:58:49.870Z,23.6
2017-08-28T10:59:57.953Z,23.7
2017-08-28T11:01:06.052Z,23.6
2017-08-28T11:02:14.130Z,23.6
2017-08-28T11:03:22.220Z,23.6
2017-08-28T11:04:30.307Z,23.7
2017-08-28T11:05:38.397Z,23.7
2017-08-28T11:06:46.495Z,23.8
2017-08-28T11:07:54.583Z,23.7
2017-08-28T11:09:02.672Z,23.7
2017-08-28T11:10:10.765Z,23.7
2017-08-28T11:11:18.849Z,23.7
2017-08-28T11:12:26.940Z,23.7
2017-08-28T11:13:35.026Z,23.8
2017-08-28T11:14:43.118Z,23.8
2017-08-28T11:15:51.206Z,23.8
2017-08-28T11:16:59.296Z,23.7
2017-08-28T11:18:07.384Z,23.8
2017-08-28T11:19:15.482Z,23.7
2017-08-28T11:20:23.565Z,23.8
2017-08-28T11:21:31.652Z,23.8
2017-08-28T11:22:39.741Z,23.8
2017-08-28T11:23:47.967Z,23.8
2017-08-28T11:24:56.054Z,23.8
2017-08-28T11:26:04.145Z,23.8
2017-08-28T11:27:12.341Z,23.9
2017-08-28T11:28:20.330Z,23.9
2017-08-28T11:29:28.412Z,23.8
2017-08-28T11:30:36.499Z,23.9
2017-08-28T11:31:44.592Z,23.8
2017-08-28T11:32:52.680Z,23.9
2017-08-28T11:34:00.768Z,23.9
2017-08-28T11:35:08.861Z,23.9
2017-08-28T11:36:17.290Z,24.0
2017-08-28T11:37:25.345Z,23.9
2017-08-28T11:38:33.432Z,24.0
2017-08-28T11:39:41.521Z,23.9
2017-08-28T11:40:49.611Z,23.9
2017-08-28T11:41:57.700Z,24.1
2017-08-28T11:43:05.802Z,24.0
2017-08-28T11:44:13.893Z,24.1
2017-08-28T11:45:21.982Z,24.0
2017-08-28T11:46:30.074Z,23.9
2017-08-28T11:47:38.165Z,23.9
2017-08-28T11:48:46.254Z,24.0
2017-08-28T11:49:54.344Z,24.0
2017-08-28T11:51:02.443Z,24.0
2017-08-28T11:52:10.531Z,24.0
2017-08-28T11:53:18.626Z,24.1
2017-08-28T11:54:26.724Z,24.1
2017-08-28T11:55:34.812Z,24.1
2017-08-28T11:56:42.919Z,24.1
2017-08-28T11:57:50.990Z,24.1
2017-08-28T11:58:59.078Z,24.1
2017-08-28T12:00:07.171Z,24.1
2017-08-28T12:01:15.259Z,24.1
2017-08-28T12:02:23.350Z,24.1
2017-08-28T12:03:31.440Z,24.1
2017-08-28T12:04:39.527Z,24.1
2017-08-28T12:05:47.618Z,24.1
2017-08-28T12:06:55.706Z,24.1
2017-08-28T12:08:03.796Z,24.1
2017-08-28T12:09:11.885Z,24.1
2017-08-28T12:10:19.973Z,24.1
2017-08-28T12:11:28.064Z,24.1
2017-08-28T12:12:36.156Z,24.2
2017-08-28T12:13:44.251Z,24.2
2017-08-28T12:14:52.341Z,24.2
2017-08-28T12:16:00.432Z,24.2
2017-08-28T12:17:08.528Z,24.2
2017-08-28T12:18:16.631Z,24.2
2017-08-28T12:19:24.730Z,24.2
2017-08-28T12:20:32.814Z,24.2
2017-08-28T12:21:40.903Z,24.2
2017-08-28T12:22:48.994Z,24.2
2017-08-28T12:23:57.085Z,24.2
2017-08-28T12:25:05.182Z,24.2
2017-08-28T12:26:13.264Z,24.2
2017-08-28T12:27:21.353Z,24.2
2017-08-28T12:28:29.448Z,24.3
2017-08-28T12:29:37.539Z,24.3
2017-08-28T12:30:45.628Z,24.2
2017-08-28T12:31:53.720Z,24.3
2017-08-28T12:33:01.809Z,24.2
2017-08-28T12:34:09.909Z,24.2
2017-08-28T12:35:17.988Z,24.2
2017-08-28T12:36:26.077Z,24.3
2017-08-28T12:37:34.166Z,24.2
2017-08-28T12:38:42.254Z,24.3
2017-08-28T12:39:50.345Z,24.3
2017-08-28T12:40:58.432Z,24.3
2017-08-28T12:42:06.528Z,24.3
2017-08-28T12:43:14.621Z,24.4
2017-08-28T12:44:22.727Z,24.2
2017-08-28T12:45:30.794Z,24.3
2017-08-28T12:46:38.880Z,24.3
2017-08-28T12:47:46.969Z,24.2
2017-08-28T12:48:55.057Z,24.3
2017-08-28T12:50:03.148Z,24.3
2017-08-28T12:51:11.238Z,24.4
2017-08-28T12:52:19.328Z,24.3
2017-08-28T12:53:27.416Z,24.3
2017-08-28T12:54:35.507Z,24.4
2017-08-28T12:55:43.647Z,24.3
2017-08-28T12:56:51.687Z,24.3
2017-08-28T12:57:59.774Z,24.3
2017-08-28T12:59:07.864Z,24.3
2017-08-28T13:00:15.952Z,24.3
2017-08-28T13:01:24.062Z,24.3
2017-08-28T13:02:32.138Z,24.3
2017-08-28T13:03:40.222Z,24.3
2017-08-28T13:04:48.313Z,24.3
2017-08-28T13:05:56.402Z,24.3
2017-08-28T13:07:04.492Z,24.3
2017-08-28T13:08:12.579Z,24.3
2017-08-28T13:09:20.669Z,24.3
2017-08-28T13:10:28.761Z,24.3
2017-08-28T13:11:36.852Z,24.3
2017-08-28T13:12:44.939Z,24.3
2017-08-28T13:13:53.030Z,24.3
2017-08-28T13:15:05.495Z,24.4
2017-08-28T13:16:09.206Z,24.3
2017-08-28T13:17:17.294Z,24.3
2017-08-28T13:18:25.380Z,24.4
2017-08-28T13:19:33.473Z,24.3
2017-08-28T13:20:41.572Z,24.3
2017-08-28T13:21:49.661Z,24.3
2017-08-28T13:22:57.750Z,24.3
2017-08-28T13:24:05.866Z,24.3
2017-08-28T13:25:13.927Z,24.3
2017-08-28T13:26:22.016Z,24.3
2017-08-28T13:27:30.108Z,24.3
2017-08-28T13:28:38.197Z,24.4
2017-08-28T13:29:46.286Z,24.3
2017-08-28T13:30:56.933Z,24.3
2017-08-28T13:32:02.466Z,24.3
2017-08-28T13:33:10.558Z,24.4
2017-08-28T13:36:34.826Z,24.4
2017-08-28T13:37:42.911Z,24.4
2017-08-28T13:38:51.008Z,24.4
2017-08-28T13:41:07.178Z,24.4
2017-08-28T13:43:23.359Z,24.4
2017-08-28T13:44:31.448Z,24.4
2017-08-28T13:45:39.539Z,24.4
2017-08-28T13:46:47.626Z,24.4
2017-08-28T13:48:01.136Z,24.5
2017-08-28T13:49:03.801Z,24.4
2017-08-28T13:50:13.454Z,24.4
2017-08-28T13:51:19.984Z,24.4
2017-08-28T13:52:28.072Z,24.3
2017-08-28T13:53:36.161Z,24.5
2017-08-28T13:54:44.251Z,24.3
2017-08-28T13:55:52.342Z,24.4
2017-08-28T13:57:00.427Z,24.4
2017-08-28T13:58:08.525Z,24.4
2017-08-28T13:59:16.615Z,24.4
2017-08-28T14:00:24.699Z,24.4
2017-08-28T14:01:32.786Z,24.4
2017-08-28T14:02:40.877Z,24.4
2017-08-28T14:03:48.966Z,24.4
2017-08-28T14:04:57.055Z,24.4
2017-08-28T14:06:05.144Z,24.4
2017-08-28T14:07:13.235Z,24.3
2017-08-28T14:08:21.322Z,24.4
2017-08-28T14:09:29.415Z,24.5
2017-08-28T14:10:37.526Z,24.3
2017-08-28T14:11:45.590Z,24.4
2017-08-28T14:12:53.688Z,24.3
2017-08-28T14:14:01.771Z,24.3
2017-08-28T14:15:09.859Z,24.4
2017-08-28T14:16:17.947Z,24.3
2017-08-28T14:17:26.052Z,24.4
2017-08-28T14:18:34.127Z,24.4
2017-08-28T14:19:42.215Z,24.4
2017-08-28T14:20:50.314Z,24.3
2017-08-28T14:21:58.396Z,24.4
2017-08-28T14:23:06.487Z,24.4
2017-08-28T14:24:14.614Z,24.4
2017-08-28T14:25:22.660Z,24.4
2017-08-28T14:26:30.751Z,24.4
2017-08-28T14:28:49.781Z,24.4
2017-08-28T14:30:01.170Z,24.4
2017-08-28T14:31:03.125Z,24.4
2017-08-28T14:33:19.307Z,24.4
2017-08-28T14:34:27.395Z,24.4
2017-08-28T14:35:35.484Z,24.3
2017-08-28T14:36:43.572Z,24.4
2017-08-28T14:37:51.661Z,24.4
2017-08-28T14:38:59.752Z,24.4
2017-08-28T14:40:07.839Z,24.4
2017-08-28T14:41:15.929Z,24.4
2017-08-28T14:42:24.020Z,24.3
2017-08-28T14:43:44.461Z,24.4
2017-08-28T14:44:40.201Z,24.4
2017-08-28T14:45:48.290Z,24.4
2017-08-28T14:46:56.378Z,24.4
2017-08-28T14:48:21.699Z,24.4
2017-08-28T14:49:12.559Z,24.4
2017-08-28T14:50:20.647Z,24.4
2017-08-28T14:51:28.737Z,24.3
2017-08-28T14:52:36.830Z,24.4
2017-08-28T14:53:44.917Z,24.4
2017-08-28T14:54:53.006Z,24.4
2017-08-28T14:56:01.093Z,24.4
2017-08-28T14:57:09.182Z,24.4
2017-08-28T14:58:17.272Z,24.4
2017-08-28T14:59:25.361Z,24.4
2017-08-28T15:00:50.680Z,24.4
2017-08-28T15:01:41.539Z,24.4
2017-08-28T15:02:49.635Z,24.4
2017-08-28T15:03:57.726Z,24.4
2017-08-28T15:05:05.817Z,24.4
2017-08-28T15:06:13.905Z,24.4
2017-08-28T15:07:22.006Z,24.4
2017-08-28T15:08:30.093Z,24.3
2017-08-28T15:09:38.188Z,24.4
2017-08-28T15:10:46.272Z,24.3
2017-08-28T15:11:54.363Z,24.3
2017-08-28T15:13:02.456Z,24.3